Terminal Aerodrome Forecast
Issued by NWS

Home | Current Version | Previous Version | Graphics & Text | Print | Product List | Glossary On
Versions: 1 2 3 4 5 6 7 8 9 10 11 12 13 14 15 16 17 18
944
FTUS43 KTOP 180542
TAFFOE
TAF
KFOE 180542Z 1806/1906 32010KT P6SM SCT020 BKN100
      TEMPO 1806/1808 4SM BR OVC009
     FM180800 34023G33KT P6SM VCSH SCT008 OVC012
      TEMPO 1812/1816 5SM -RA BR
     FM181600 32022G31KT P6SM FEW050 SCT150
     FM190000 31009KT P6SM SKC=

USA.gov is the U.S. government's official web portal to all federal, state and local government web resources and services.